createdAt,value
2022-08-24T00:01:49.517Z,20.32
2022-08-24T00:04:25.765Z,20.33
2022-08-24T00:07:02.523Z,20.32
2022-08-24T00:09:38.804Z,20.30
2022-08-24T00:12:15.613Z,20.28
2022-08-24T00:14:51.701Z,20.27
2022-08-24T00:17:27.858Z,20.27
2022-08-24T00:20:04.265Z,20.27
2022-08-24T00:22:41.264Z,20.27
2022-08-24T00:25:20.100Z,20.28
2022-08-24T00:27:57.159Z,20.28
2022-08-24T00:30:33.900Z,20.29
2022-08-24T00:33:10.424Z,20.30
2022-08-24T00:35:47.015Z,20.31
2022-08-24T00:38:23.066Z,20.32
2022-08-24T00:41:04.753Z,20.33
2022-08-24T00:43:40.819Z,20.34
2022-08-24T00:46:31.879Z,20.35
2022-08-24T00:49:15.220Z,20.37
2022-08-24T00:52:04.373Z,20.39
2022-08-24T00:54:48.163Z,20.39
2022-08-24T00:57:32.069Z,20.42
2022-08-24T01:00:16.646Z,20.43
2022-08-24T01:03:01.689Z,20.44
2022-08-24T01:05:41.554Z,20.45
2022-08-24T01:08:18.631Z,20.46
2022-08-24T01:11:02.003Z,20.47
2022-08-24T01:13:39.355Z,20.47
2022-08-24T01:16:38.543Z,20.48
2022-08-24T01:19:30.710Z,20.49
2022-08-24T01:22:20.912Z,20.49
2022-08-24T01:24:57.722Z,20.48
2022-08-24T01:27:35.049Z,20.47
2022-08-24T01:30:18.694Z,20.46
2022-08-24T01:33:06.016Z,20.45
2022-08-24T01:35:43.153Z,20.42
2022-08-24T01:38:19.583Z,20.40
2022-08-24T01:41:01.942Z,20.38
2022-08-24T01:43:38.563Z,20.37
2022-08-24T01:46:16.613Z,20.36
2022-08-24T01:48:52.824Z,20.35
2022-08-24T01:51:30.899Z,20.34
2022-08-24T01:54:08.267Z,20.33
2022-08-24T01:56:44.678Z,20.33
2022-08-24T01:59:22.404Z,20.33
2022-08-24T02:02:07.815Z,20.34
2022-08-24T02:04:44.297Z,20.34
2022-08-24T02:07:21.171Z,20.35
2022-08-24T02:09:58.969Z,20.36
2022-08-24T02:12:35.648Z,20.37
2022-08-24T02:15:14.970Z,20.38
2022-08-24T02:17:51.188Z,20.40
2022-08-24T02:20:27.873Z,20.40
2022-08-24T02:23:04.472Z,20.40
2022-08-24T02:25:40.825Z,20.41
2022-08-24T02:28:17.144Z,20.41
2022-08-24T02:30:54.224Z,20.41
2022-08-24T02:33:30.630Z,20.41
2022-08-24T02:36:25.481Z,20.40
2022-08-24T02:39:04.417Z,20.38
2022-08-24T02:41:42.496Z,20.37
2022-08-24T02:44:18.506Z,20.37
2022-08-24T02:46:54.586Z,20.37
2022-08-24T02:49:30.734Z,20.37
2022-08-24T02:52:07.511Z,20.37
2022-08-24T02:54:45.207Z,20.37
2022-08-24T02:57:21.529Z,20.37
2022-08-24T02:59:57.617Z,20.37
2022-08-24T03:02:34.233Z,20.37
2022-08-24T03:05:14.381Z,20.37
2022-08-24T03:07:52.449Z,20.37
2022-08-24T03:10:28.953Z,20.37
2022-08-24T03:13:05.679Z,20.36
2022-08-24T03:15:41.913Z,20.36
2022-08-24T03:18:18.088Z,20.37
2022-08-24T03:21:03.895Z,20.36
2022-08-24T03:23:40.548Z,20.36
2022-08-24T03:26:16.813Z,20.36
2022-08-24T03:28:53.023Z,20.36
2022-08-24T03:31:29.534Z,20.35
2022-08-24T03:34:07.708Z,20.35
2022-08-24T03:36:46.368Z,20.34
2022-08-24T03:39:23.038Z,20.34
2022-08-24T03:42:02.083Z,20.33
2022-08-24T03:44:38.251Z,20.33
2022-08-24T03:47:15.927Z,20.34
2022-08-24T03:49:51.905Z,20.34
2022-08-24T03:52:30.016Z,20.34
2022-08-24T03:55:13.844Z,20.36
2022-08-24T03:57:51.313Z,20.35
2022-08-24T04:00:27.465Z,20.36
2022-08-24T04:03:05.393Z,20.38
2022-08-24T04:05:43.336Z,20.39
2022-08-24T04:08:21.277Z,20.40
2022-08-24T04:10:57.226Z,20.41
2022-08-24T04:13:34.117Z,20.41
2022-08-24T04:16:15.346Z,20.41
2022-08-24T04:18:50.692Z,20.42
2022-08-24T04:21:31.451Z,20.41
2022-08-24T04:24:14.087Z,20.43
2022-08-24T04:26:50.572Z,20.45
2022-08-24T04:29:27.662Z,20.49
2022-08-24T04:32:05.175Z,20.53
2022-08-24T04:34:41.512Z,20.56
2022-08-24T04:37:18.016Z,20.60
2022-08-24T04:40:00.618Z,20.64
2022-08-24T04:42:42.932Z,20.67
2022-08-24T04:45:19.165Z,20.72
2022-08-24T04:47:55.744Z,20.76
2022-08-24T04:50:35.854Z,20.80
2022-08-24T04:53:14.388Z,20.84
2022-08-24T04:55:53.144Z,20.87
2022-08-24T04:58:31.044Z,20.91
2022-08-24T05:01:15.291Z,20.95
2022-08-24T05:03:54.397Z,20.99
2022-08-24T05:06:33.993Z,21.04
2022-08-24T05:09:10.535Z,21.09
2022-08-24T05:11:50.118Z,21.15
2022-08-24T05:14:30.638Z,21.22
2022-08-24T05:17:10.443Z,21.28
2022-08-24T05:19:46.571Z,21.36
2022-08-24T05:22:22.911Z,21.43
2022-08-24T05:25:02.345Z,21.51
2022-08-24T05:27:39.358Z,21.59
2022-08-24T05:30:17.986Z,21.66
2022-08-24T05:32:53.998Z,21.73
2022-08-24T05:35:30.152Z,21.78
2022-08-24T05:38:08.009Z,21.85
2022-08-24T05:40:45.941Z,21.93
2022-08-24T05:43:22.117Z,22.00
2022-08-24T05:45:58.485Z,22.04
2022-08-24T05:48:35.676Z,22.09
2022-08-24T05:51:17.714Z,22.19
2022-08-24T05:54:01.370Z,22.32
2022-08-24T05:56:43.751Z,22.46
2022-08-24T05:59:20.937Z,22.57
2022-08-24T06:01:57.320Z,22.66
2022-08-24T06:04:34.363Z,22.76
2022-08-24T06:07:11.698Z,22.87
2022-08-24T06:09:50.529Z,22.98
2022-08-24T06:12:26.454Z,23.03
2022-08-24T06:15:02.850Z,23.11
2022-08-24T06:17:39.010Z,23.27
2022-08-24T06:20:16.899Z,23.42
2022-08-24T06:22:53.784Z,23.53
2022-08-24T06:25:49.030Z,23.60
2022-08-24T06:28:24.998Z,23.67
2022-08-24T06:31:09.450Z,23.70
2022-08-24T06:33:46.317Z,23.67
2022-08-24T06:36:23.258Z,23.63
2022-08-24T06:38:59.663Z,23.59
2022-08-24T06:41:36.021Z,23.59
2022-08-24T06:44:17.793Z,23.58
2022-08-24T06:46:58.275Z,23.57
2022-08-24T06:49:34.607Z,23.57
2022-08-24T06:52:13.028Z,23.59
2022-08-24T06:54:49.169Z,23.60
2022-08-24T06:57:25.458Z,23.62
2022-08-24T07:00:02.389Z,23.64
2022-08-24T07:02:38.842Z,23.68
2022-08-24T07:05:15.873Z,23.73
2022-08-24T07:08:51.867Z,23.79
2022-08-24T07:11:28.340Z,23.80
2022-08-24T07:14:04.435Z,23.77
2022-08-24T07:16:40.427Z,23.78
2022-08-24T07:19:17.355Z,23.79
2022-08-24T07:21:56.902Z,23.79
2022-08-24T07:24:34.035Z,23.79
2022-08-24T07:27:10.724Z,23.79
2022-08-24T07:29:53.078Z,23.79
2022-08-24T07:32:36.887Z,23.82
2022-08-24T07:35:14.196Z,23.83
2022-08-24T07:37:50.991Z,23.88
2022-08-24T07:40:36.491Z,23.97
2022-08-24T07:43:25.148Z,24.09
2022-08-24T07:46:01.793Z,24.19
2022-08-24T07:48:38.268Z,24.31
2022-08-24T07:51:20.372Z,24.45
2022-08-24T07:53:57.653Z,24.59
2022-08-24T07:56:37.235Z,24.73
2022-08-24T07:59:13.767Z,24.91
2022-08-24T08:01:50.752Z,25.15
2022-08-24T08:04:28.087Z,25.41
2022-08-24T08:07:07.497Z,25.63
2022-08-24T08:09:44.119Z,25.82
2022-08-24T08:12:20.366Z,26.02
2022-08-24T08:15:03.590Z,26.19
2022-08-24T08:17:40.077Z,26.28
2022-08-24T08:20:19.375Z,26.34
2022-08-24T08:23:14.000Z,26.37
2022-08-24T08:25:57.608Z,26.33
2022-08-24T08:28:43.179Z,26.23
2022-08-24T08:31:19.631Z,26.13
2022-08-24T08:33:56.486Z,25.97
2022-08-24T08:36:34.029Z,25.81
2022-08-24T08:39:13.773Z,25.74
2022-08-24T08:42:38.554Z,25.80
2022-08-24T08:45:33.348Z,25.91
2022-08-24T08:49:41.994Z,26.15
2022-08-24T08:53:23.899Z,26.40
2022-08-24T08:56:16.636Z,26.79
2022-08-24T08:59:08.825Z,27.14
2022-08-24T09:02:09.844Z,27.41
2022-08-24T09:05:47.558Z,27.41
2022-08-24T09:08:42.493Z,27.30
2022-08-24T09:11:44.777Z,27.24
2022-08-24T09:15:13.384Z,27.18
2022-08-24T09:18:18.702Z,26.99
2022-08-24T09:21:25.477Z,26.86
2022-08-24T09:24:34.560Z,26.84
2022-08-24T09:27:34.371Z,26.95
2022-08-24T09:30:18.452Z,27.10
2022-08-24T09:33:10.431Z,27.33
2022-08-24T09:36:12.504Z,27.66
2022-08-24T09:39:26.715Z,27.99
2022-08-24T09:43:25.038Z,28.24
2022-08-24T09:46:46.302Z,28.43
2022-08-24T09:50:19.530Z,28.70
2022-08-24T09:53:40.337Z,29.14
2022-08-24T09:56:53.784Z,29.37
2022-08-24T10:00:12.258Z,29.42
2022-08-24T10:03:14.904Z,29.26
2022-08-24T10:06:29.979Z,29.23
2022-08-24T10:09:52.375Z,29.28
2022-08-24T10:12:54.174Z,29.42
2022-08-24T10:15:46.729Z,29.67
2022-08-24T10:18:46.283Z,29.78
2022-08-24T10:21:55.366Z,29.76
2022-08-24T10:25:09.041Z,29.64
2022-08-24T10:28:04.539Z,29.50
2022-08-24T10:31:09.750Z,29.40
2022-08-24T10:34:12.022Z,29.23
2022-08-24T10:37:18.300Z,29.10
2022-08-24T10:40:29.199Z,29.07
2022-08-24T10:43:51.444Z,29.00
2022-08-24T10:46:58.753Z,28.97
2022-08-24T10:50:41.980Z,29.05
2022-08-24T10:53:32.671Z,29.00
2022-08-24T10:56:28.427Z,28.82
2022-08-24T10:59:23.724Z,28.69
2022-08-24T11:02:28.968Z,28.63
2022-08-24T11:05:10.850Z,28.47
2022-08-24T11:08:05.870Z,28.45
2022-08-24T11:10:43.784Z,28.61
2022-08-24T11:13:29.572Z,28.82
2022-08-24T11:16:09.271Z,29.02
2022-08-24T11:18:57.172Z,29.10
2022-08-24T11:21:55.024Z,29.23
2022-08-24T11:24:43.632Z,29.39
2022-08-24T11:27:39.164Z,29.51
2022-08-24T11:30:29.608Z,29.52
2022-08-24T11:33:25.091Z,29.42
2022-08-24T11:36:03.108Z,29.36
2022-08-24T11:38:45.605Z,29.27
2022-08-24T11:41:31.590Z,29.19
2022-08-24T11:44:23.100Z,29.19
2022-08-24T11:47:10.068Z,29.24
2022-08-24T11:50:01.928Z,29.19
2022-08-24T11:53:00.773Z,29.02
2022-08-24T11:55:57.261Z,28.97
2022-08-24T11:58:55.214Z,28.97
2022-08-24T12:01:44.911Z,29.03
2022-08-24T12:04:53.539Z,29.05
2022-08-24T12:07:57.673Z,29.01
2022-08-24T12:10:49.265Z,29.06
2022-08-24T12:13:56.339Z,29.09
2022-08-24T12:16:45.385Z,28.93
2022-08-24T12:19:29.740Z,28.91
2022-08-24T12:22:10.983Z,29.00
2022-08-24T12:24:52.247Z,29.19
2022-08-24T12:27:34.912Z,29.41
2022-08-24T12:30:17.698Z,29.46
2022-08-24T12:33:02.003Z,29.39
2022-08-24T12:35:45.469Z,29.37
2022-08-24T12:38:30.022Z,29.40
2022-08-24T12:41:20.279Z,29.47
2022-08-24T12:44:09.168Z,29.57
2022-08-24T12:46:53.255Z,29.65
2022-08-24T12:49:40.113Z,29.68
2022-08-24T12:52:54.961Z,29.70
2022-08-24T12:56:30.921Z,29.76
2022-08-24T12:59:19.443Z,29.78
2022-08-24T13:02:09.430Z,29.80
2022-08-24T13:05:01.672Z,29.81
2022-08-24T13:07:49.934Z,29.78
2022-08-24T13:10:46.248Z,29.73
2022-08-24T13:13:48.218Z,29.69
2022-08-24T13:17:08.965Z,29.59
2022-08-24T13:20:09.983Z,29.46
2022-08-24T13:23:07.892Z,29.31
2022-08-24T13:26:01.362Z,29.14
2022-08-24T13:28:49.914Z,28.95
2022-08-24T13:31:42.758Z,28.76
2022-08-24T13:34:46.646Z,28.59
2022-08-24T13:37:28.007Z,28.45
2022-08-24T13:40:27.899Z,28.36
2022-08-24T13:43:24.489Z,28.34
2022-08-24T13:46:17.747Z,28.39
2022-08-24T13:49:13.522Z,28.45
2022-08-24T13:51:57.799Z,28.53
2022-08-24T13:54:44.358Z,28.55
2022-08-24T13:57:43.232Z,28.58
2022-08-24T14:00:56.431Z,28.60
2022-08-24T14:04:15.358Z,28.59
2022-08-24T14:07:04.896Z,28.56
2022-08-24T14:10:08.108Z,28.48
2022-08-24T14:13:07.850Z,28.42
2022-08-24T14:16:18.760Z,28.42
2022-08-24T14:19:16.181Z,28.49
2022-08-24T14:22:02.825Z,28.61
2022-08-24T14:24:46.549Z,28.68
2022-08-24T14:27:48.687Z,28.69
2022-08-24T14:31:12.577Z,28.69
2022-08-24T14:34:13.497Z,28.78
2022-08-24T14:37:02.370Z,28.88
2022-08-24T14:39:49.111Z,28.93
2022-08-24T14:42:38.432Z,28.95
2022-08-24T14:45:24.753Z,28.93
2022-08-24T14:48:19.299Z,28.91
2022-08-24T14:51:36.127Z,28.90
2022-08-24T14:54:38.037Z,28.97
2022-08-24T14:57:40.797Z,29.11
2022-08-24T15:00:23.517Z,29.25
2022-08-24T15:03:43.010Z,29.36
2022-08-24T15:06:33.033Z,29.43
2022-08-24T15:09:26.083Z,29.54
2022-08-24T15:12:17.396Z,29.64
2022-08-24T15:15:05.348Z,29.69
2022-08-24T15:18:00.011Z,29.66
2022-08-24T15:21:10.941Z,29.61
2022-08-24T15:24:19.368Z,29.56
2022-08-24T15:27:16.284Z,29.49
2022-08-24T15:30:03.123Z,29.35
2022-08-24T15:32:53.428Z,29.25
2022-08-24T15:35:35.901Z,29.18
2022-08-24T15:38:33.612Z,29.07
2022-08-24T15:41:15.886Z,28.96
2022-08-24T15:44:02.280Z,28.73
2022-08-24T15:46:44.696Z,28.24
2022-08-24T15:49:29.440Z,27.56
2022-08-24T15:52:10.694Z,26.88
2022-08-24T15:55:00.758Z,26.30
2022-08-24T15:57:42.909Z,25.74
2022-08-24T16:00:42.603Z,25.30
2022-08-24T16:03:53.042Z,24.85
2022-08-24T16:06:45.281Z,24.53
2022-08-24T16:09:39.652Z,24.26
2022-08-24T16:12:24.416Z,24.00
2022-08-24T16:15:18.381Z,23.79
2022-08-24T16:17:59.783Z,23.55
2022-08-24T16:20:36.944Z,23.35
2022-08-24T16:23:25.985Z,23.20
2022-08-24T16:26:33.173Z,23.04
2022-08-24T16:29:09.847Z,22.92
2022-08-24T16:32:05.682Z,22.83
2022-08-24T16:34:44.067Z,22.74
2022-08-24T16:37:22.203Z,22.65
2022-08-24T16:39:58.336Z,22.57
2022-08-24T16:42:35.895Z,22.50
2022-08-24T16:45:19.787Z,22.43
2022-08-24T16:47:55.869Z,22.39
2022-08-24T16:50:32.543Z,22.35
2022-08-24T16:53:10.513Z,22.33
2022-08-24T16:55:48.973Z,22.29
2022-08-24T16:58:37.151Z,22.25
2022-08-24T17:01:14.010Z,22.21
2022-08-24T17:03:50.583Z,22.17
2022-08-24T17:06:26.703Z,22.12
2022-08-24T17:09:03.036Z,22.07
2022-08-24T17:11:39.088Z,22.01
2022-08-24T17:14:15.328Z,21.97
2022-08-24T17:16:52.084Z,21.92
2022-08-24T17:19:31.126Z,21.86
2022-08-24T17:22:10.087Z,21.81
2022-08-24T17:24:48.448Z,21.75
2022-08-24T17:27:32.498Z,21.69
2022-08-24T17:30:16.826Z,21.66
2022-08-24T17:32:54.124Z,21.63
2022-08-24T17:35:30.226Z,21.61
2022-08-24T17:38:08.597Z,21.58
2022-08-24T17:40:44.697Z,21.55
2022-08-24T17:43:20.712Z,21.52
2022-08-24T17:45:56.934Z,21.49
2022-08-24T17:48:36.491Z,21.45
2022-08-24T17:51:13.627Z,21.42
2022-08-24T17:53:49.967Z,21.39
2022-08-24T17:56:37.813Z,21.37
2022-08-24T17:59:23.865Z,21.34
2022-08-24T18:02:03.178Z,21.32
2022-08-24T18:04:41.195Z,21.28
2022-08-24T18:07:42.205Z,21.25
2022-08-24T18:10:23.672Z,21.21
2022-08-24T18:13:00.870Z,21.17
2022-08-24T18:15:39.616Z,21.14
2022-08-24T18:18:15.708Z,21.11
2022-08-24T18:20:51.776Z,21.08
2022-08-24T18:23:28.127Z,21.05
2022-08-24T18:26:04.885Z,21.02
2022-08-24T18:28:42.268Z,21.00
2022-08-24T18:31:20.623Z,20.98
2022-08-24T18:33:56.939Z,20.94
2022-08-24T18:36:33.262Z,20.92
2022-08-24T18:39:09.387Z,20.88
2022-08-24T18:41:49.487Z,20.86
2022-08-24T18:44:31.553Z,20.83
2022-08-24T18:47:09.352Z,20.81
2022-08-24T18:49:45.936Z,20.79
2022-08-24T18:52:22.743Z,20.77
2022-08-24T18:54:58.833Z,20.74
2022-08-24T18:57:35.526Z,20.71
2022-08-24T19:00:16.403Z,20.69
2022-08-24T19:02:52.640Z,20.66
2022-08-24T19:05:29.557Z,20.63
2022-08-24T19:08:06.592Z,20.60
2022-08-24T19:10:43.095Z,20.58
2022-08-24T19:13:20.578Z,20.55
2022-08-24T19:15:58.174Z,20.53
2022-08-24T19:18:34.914Z,20.51
2022-08-24T19:21:11.794Z,20.49
2022-08-24T19:23:49.063Z,20.47
2022-08-24T19:26:25.823Z,20.46
2022-08-24T19:29:01.848Z,20.44
2022-08-24T19:31:38.953Z,20.42
2022-08-24T19:34:16.074Z,20.41
2022-08-24T19:36:52.188Z,20.40
2022-08-24T19:39:31.749Z,20.38
2022-08-24T19:42:10.944Z,20.36
2022-08-24T19:45:04.847Z,20.34
2022-08-24T19:47:41.007Z,20.32
2022-08-24T19:50:21.254Z,20.31
2022-08-24T19:52:59.150Z,20.29
2022-08-24T19:55:36.991Z,20.28
2022-08-24T19:58:25.530Z,20.27
2022-08-24T20:01:11.544Z,20.25
2022-08-24T20:03:48.032Z,20.23
2022-08-24T20:06:27.022Z,20.23
2022-08-24T20:09:04.103Z,20.21
2022-08-24T20:11:40.895Z,20.19
2022-08-24T20:14:18.228Z,20.16
2022-08-24T20:16:54.347Z,20.15
2022-08-24T20:19:31.516Z,20.13
2022-08-24T20:22:13.324Z,20.13
2022-08-24T20:24:53.452Z,20.11
2022-08-24T20:27:31.274Z,20.10
2022-08-24T20:30:09.315Z,20.08
2022-08-24T20:32:45.732Z,20.07
2022-08-24T20:35:29.297Z,20.04
2022-08-24T20:38:05.830Z,20.02
2022-08-24T20:40:42.291Z,20.00
2022-08-24T20:43:19.531Z,19.98
2022-08-24T20:45:57.687Z,19.98
2022-08-24T20:48:40.256Z,19.96
2022-08-24T20:51:19.036Z,19.94
2022-08-24T20:53:55.481Z,19.93
2022-08-24T20:56:35.506Z,19.90
2022-08-24T20:59:14.829Z,19.88
2022-08-24T21:01:51.591Z,19.87
2022-08-24T21:04:27.755Z,19.85
2022-08-24T21:07:05.731Z,19.82
2022-08-24T21:09:42.290Z,19.80
2022-08-24T21:12:18.225Z,19.79
2022-08-24T21:14:54.300Z,19.77
2022-08-24T21:17:30.601Z,19.75
2022-08-24T21:20:07.885Z,19.74
2022-08-24T21:22:46.272Z,19.72
2022-08-24T21:25:23.190Z,19.68
2022-08-24T21:28:03.009Z,19.67
2022-08-24T21:30:39.074Z,19.65
2022-08-24T21:33:32.925Z,19.64
2022-08-24T21:36:10.659Z,19.62
2022-08-24T21:38:46.857Z,19.61
2022-08-24T21:41:23.111Z,19.60
2022-08-24T21:43:59.841Z,19.59
2022-08-24T21:46:41.034Z,19.57
2022-08-24T21:49:17.156Z,19.55
2022-08-24T21:51:54.999Z,19.54
2022-08-24T21:54:31.224Z,19.52
2022-08-24T21:57:09.360Z,19.49
2022-08-24T21:59:45.426Z,19.48
2022-08-24T22:02:25.656Z,19.46
2022-08-24T22:05:01.878Z,19.44
2022-08-24T22:07:38.552Z,19.42
2022-08-24T22:10:15.585Z,19.39
2022-08-24T22:12:51.831Z,19.36
2022-08-24T22:15:28.654Z,19.34
2022-08-24T22:18:05.813Z,19.32
2022-08-24T22:20:42.416Z,19.30
2022-08-24T22:23:18.326Z,19.28
2022-08-24T22:25:57.309Z,19.26
2022-08-24T22:28:33.725Z,19.23
2022-08-24T22:31:21.518Z,19.21
2022-08-24T22:33:59.604Z,19.17
2022-08-24T22:36:36.387Z,19.14
2022-08-24T22:39:14.649Z,19.11
2022-08-24T22:41:50.868Z,19.08
2022-08-24T22:44:27.947Z,19.05
2022-08-24T22:47:13.050Z,19.02
2022-08-24T22:49:51.286Z,18.98
2022-08-24T22:52:27.524Z,18.95
2022-08-24T22:55:04.355Z,18.92
2022-08-24T22:57:40.645Z,18.88
2022-08-24T23:00:20.477Z,18.86
2022-08-24T23:02:56.731Z,18.83
2022-08-24T23:05:32.992Z,18.80
2022-08-24T23:08:09.423Z,18.76
2022-08-24T23:10:45.552Z,18.73
2022-08-24T23:13:25.659Z,18.70
2022-08-24T23:16:04.659Z,18.66
2022-08-24T23:18:58.970Z,18.63
2022-08-24T23:21:35.963Z,18.60
2022-08-24T23:24:14.314Z,18.56
2022-08-24T23:26:50.599Z,18.53
2022-08-24T23:29:27.220Z,18.50
2022-08-24T23:32:03.714Z,18.47
2022-08-24T23:34:40.412Z,18.45
2022-08-24T23:37:17.425Z,18.42
2022-08-24T23:39:53.531Z,18.39
2022-08-24T23:42:29.633Z,18.37
2022-08-24T23:45:11.191Z,18.34
2022-08-24T23:47:48.451Z,18.32
2022-08-24T23:50:24.619Z,18.30
2022-08-24T23:53:00.763Z,18.27
2022-08-24T23:55:36.624Z,18.25
2022-08-24T23:58:13.145Z,18.23
